Time;durP1;ratioP1;P1;durP2;ratioP2;P2;SDS_P1;SDS_P2;PMS_P1;PMS_P2;Temp;Humidity;BMP_temperature;BMP_pressure;BME280_temperature;BME280_humidity;BME280_pressure;Samples;Min_cycle;Max_cycle;Signal;HPM_P1;HPM_P2
2021/04/11 00:00:45;;;;;;;21.98;11.30;;;5.20;96.30;;;;;;4985319;28;20030;-70
2021/04/11 00:03:14;;;;;;;22.25;11.43;;;5.20;96.30;;;;;;4983226;28;20030;-68
2021/04/11 00:05:41;;;;;;;21.85;11.35;;;5.20;96.40;;;;;;4985148;28;20031;-67
2021/04/11 00:08:09;;;;;;;20.42;11.57;;;5.20;96.40;;;;;;4975074;28;20145;-68
2021/04/11 00:10:38;;;;;;;19.70;11.88;;;5.20;96.40;;;;;;4981653;28;20034;-69
2021/04/11 00:13:06;;;;;;;20.98;12.15;;;5.30;96.40;;;;;;4978311;28;20026;-69
2021/04/11 00:15:32;;;;;;;23.88;13.52;;;5.30;96.50;;;;;;4978871;28;20035;-70
2021/04/11 00:17:58;;;;;;;23.75;13.43;;;5.30;96.50;;;;;;4978095;28;20071;-69
2021/04/11 00:20:24;;;;;;;24.88;13.75;;;5.40;96.60;;;;;;4980720;28;20466;-69
2021/04/11 00:22:51;;;;;;;24.63;13.43;;;5.50;96.60;;;;;;4983918;28;20049;-69
2021/04/11 00:25:23;;;;;;;24.27;15.07;;;5.50;96.60;;;;;;4981737;28;20090;-69
2021/04/11 00:27:49;;;;;;;30.25;14.68;;;5.60;96.60;;;;;;4979990;28;20030;-69
2021/04/11 00:30:16;;;;;;;29.63;16.52;;;5.60;96.50;;;;;;4979188;28;20064;-70
2021/04/11 00:32:41;;;;;;;32.20;16.30;;;5.60;96.50;;;;;;4979240;28;20492;-68
2021/04/11 00:35:08;;;;;;;33.80;17.13;;;5.60;96.50;;;;;;4980542;28;20031;-69
2021/04/11 00:37:33;;;;;;;28.70;15.13;;;5.60;96.60;;;;;;4979854;28;20054;-68
2021/04/11 00:39:59;;;;;;;26.08;15.48;;;5.70;96.60;;;;;;4977607;28;20054;-70
2021/04/11 00:42:40;;;;;;;28.77;15.75;;;5.70;96.60;;;;;;4982917;28;20034;-68
2021/04/11 00:45:23;;;;;;;30.13;14.80;;;5.70;96.60;;;;;;4975026;28;20030;-70
2021/04/11 00:47:48;;;;;;;26.15;13.93;;;5.70;96.50;;;;;;4979443;28;20030;-68
2021/04/11 00:50:15;;;;;;;26.08;15.55;;;5.70;96.50;;;;;;4981510;28;20039;-69
2021/04/11 00:52:41;;;;;;;25.25;14.90;;;5.80;96.50;;;;;;4983508;28;20044;-69
2021/04/11 00:55:08;;;;;;;30.33;15.13;;;5.80;96.50;;;;;;4977305;28;20111;-70
2021/04/11 00:57:34;;;;;;;27.55;15.02;;;5.80;96.60;;;;;;4983408;28;20061;-70
2021/04/11 01:00:00;;;;;;;25.00;15.75;;;5.80;96.60;;;;;;4981175;28;20034;-69
2021/04/11 01:02:26;;;;;;;25.10;15.23;;;5.80;96.50;;;;;;4980557;28;20472;-69
2021/04/11 01:04:53;;;;;;;24.85;15.15;;;5.80;96.50;;;;;;4987034;28;20072;-69
2021/04/11 01:07:21;;;;;;;22.95;13.55;;;5.90;96.50;;;;;;4987346;28;20491;-68
2021/04/11 01:09:47;;;;;;;27.38;15.98;;;5.80;96.60;;;;;;4987095;28;20034;-69
2021/04/11 01:12:18;;;;;;;22.85;14.23;;;5.80;96.50;;;;;;4983011;28;20570;-69
2021/04/11 01:14:45;;;;;;;26.67;15.55;;;5.90;96.60;;;;;;4982774;28;20034;-69
2021/04/11 01:17:14;;;;;;;27.08;16.15;;;5.90;96.60;;;;;;4981344;28;20121;-69
2021/04/11 01:19:41;;;;;;;29.35;16.92;;;5.90;96.60;;;;;;4985769;28;20041;-69
2021/04/11 01:22:36;;;;;;;31.10;16.52;;;5.90;96.60;;;;;;4983277;28;20085;-69
2021/04/11 01:25:09;;;;;;;28.83;17.52;;;6.00;96.60;;;;;;4946614;28;20047;-70
2021/04/11 01:27:36;;;;;;;25.52;15.73;;;6.00;96.60;;;;;;4987299;28;20031;-69
2021/04/11 01:30:24;;;;;;;28.05;16.65;;;6.00;96.60;;;;;;4981165;28;20092;-69
2021/04/11 01:32:51;;;;;;;28.25;16.63;;;6.00;96.60;;;;;;4988316;28;20046;-69
2021/04/11 01:35:19;;;;;;;31.77;18.85;;;6.10;96.60;;;;;;4982746;28;20034;-71
2021/04/11 01:37:46;;;;;;;25.17;14.32;;;6.00;96.70;;;;;;4984980;28;20089;-70
2021/04/11 01:40:14;;;;;;;31.75;19.80;;;6.10;96.70;;;;;;4986062;28;20033;-70
2021/04/11 01:42:41;;;;;;;33.25;19.90;;;6.10;96.70;;;;;;4986510;28;20920;-69
2021/04/11 01:45:07;;;;;;;31.95;18.80;;;6.10;96.70;;;;;;4982522;28;20130;-68
2021/04/11 01:47:33;;;;;;;30.35;19.48;;;6.10;96.70;;;;;;4986314;28;20037;-70
2021/04/11 01:49:59;;;;;;;34.90;20.33;;;6.10;96.70;;;;;;4982023;28;20022;-69
2021/04/11 01:52:28;;;;;;;31.20;20.30;;;6.20;96.70;;;;;;4979940;28;20142;-70
2021/04/11 01:54:55;;;;;;;34.28;20.20;;;6.10;96.70;;;;;;4978772;28;20076;-70
2021/04/11 01:57:30;;;;;;;34.67;21.13;;;6.20;96.70;;;;;;4985549;28;20072;-71
2021/04/11 02:00:18;;;;;;;36.70;22.25;;;6.20;96.80;;;;;;4982120;28;20440;-69
2021/04/11 02:02:44;;;;;;;34.92;21.23;;;6.30;96.80;;;;;;4985525;28;20058;-68
2021/04/11 02:05:14;;;;;;;35.30;20.88;;;6.30;96.80;;;;;;4984461;28;20042;-69
2021/04/11 02:07:40;;;;;;;37.53;23.13;;;6.30;96.80;;;;;;4986566;28;20038;-68
2021/04/11 02:10:08;;;;;;;37.92;22.00;;;6.30;96.90;;;;;;4980707;28;20124;-69
2021/04/11 02:12:35;;;;;;;37.17;21.75;;;6.30;96.90;;;;;;4984132;28;20503;-69
2021/04/11 02:15:05;;;;;;;39.75;22.48;;;6.30;96.90;;;;;;4982356;28;20022;-69
2021/04/11 02:17:31;;;;;;;35.30;22.05;;;6.30;96.90;;;;;;4981080;28;20523;-68
2021/04/11 02:19:56;;;;;;;38.47;22.75;;;6.30;96.90;;;;;;4986689;28;20037;-68
2021/04/11 02:22:26;;;;;;;40.47;23.75;;;6.40;97.00;;;;;;4986816;28;20034;-69
2021/04/11 02:24:52;;;;;;;41.63;24.13;;;6.40;96.90;;;;;;4983285;28;20037;-71
2021/04/11 02:27:20;;;;;;;41.03;22.85;;;6.40;97.00;;;;;;4984365;28;20353;-69
2021/04/11 02:29:47;;;;;;;44.83;24.40;;;6.40;97.00;;;;;;4984468;28;20034;-70
2021/04/11 02:32:17;;;;;;;43.80;25.15;;;6.40;97.00;;;;;;4981885;28;20034;-69
2021/04/11 02:34:44;;;;;;;43.33;24.23;;;6.50;97.00;;;;;;4996565;28;20038;-71
2021/04/11 02:37:30;;;;;;;40.33;22.80;;;6.50;97.00;;;;;;4987275;28;20061;-70
2021/04/11 02:39:57;;;;;;;43.97;24.77;;;6.50;97.00;;;;;;4982341;28;20172;-69
2021/04/11 02:42:27;;;;;;;39.78;22.83;;;6.50;97.00;;;;;;4985700;28;20030;-70
2021/04/11 02:44:54;;;;;;;39.17;23.67;;;6.50;97.00;;;;;;4986171;28;20023;-69
2021/04/11 02:47:21;;;;;;;43.13;24.52;;;6.50;97.00;;;;;;4985966;28;20041;-69
2021/04/11 02:49:50;;;;;;;44.30;23.80;;;6.50;97.10;;;;;;4989125;28;20050;-69
2021/04/11 02:52:27;;;;;;;40.65;24.85;;;6.60;97.10;;;;;;4991999;28;20034;-70
2021/04/11 02:54:54;;;;;;;43.28;23.92;;;6.60;97.10;;;;;;4988338;28;20528;-69
2021/04/11 02:57:21;;;;;;;42.58;25.83;;;6.60;97.10;;;;;;4987843;28;20030;-69
2021/04/11 02:59:49;;;;;;;40.85;23.67;;;6.60;97.10;;;;;;4981466;28;20031;-70
2021/04/11 03:02:15;;;;;;;40.90;24.10;;;6.60;97.10;;;;;;4989369;28;20033;-70
2021/04/11 03:04:41;;;;;;;42.97;24.70;;;6.60;97.10;;;;;;4987962;28;20026;-70
2021/04/11 03:07:26;;;;;;;40.78;23.58;;;6.60;97.10;;;;;;4988929;28;20038;-70
2021/04/11 03:10:03;;;;;;;39.95;22.77;;;6.60;97.10;;;;;;4983677;28;20097;-70
2021/04/11 03:12:29;;;;;;;40.22;23.33;;;6.70;97.10;;;;;;4987083;28;20109;-69
2021/04/11 03:14:57;;;;;;;42.75;23.67;;;6.70;97.10;;;;;;4984145;28;20475;-70
2021/04/11 03:17:25;;;;;;;41.25;25.23;;;6.70;97.10;;;;;;4977757;28;20030;-69
2021/04/11 03:20:14;;;;;;;44.72;24.63;;;6.70;97.10;;;;;;4983878;28;20093;-69
2021/04/11 03:22:40;;;;;;;42.97;25.52;;;6.70;97.10;;;;;;4989732;28;20045;-69
2021/04/11 03:25:07;;;;;;;40.80;25.05;;;6.70;97.10;;;;;;4985541;28;20035;-69
2021/04/11 03:27:39;;;;;;;41.47;24.75;;;6.70;97.10;;;;;;4990354;28;20034;-68
2021/04/11 03:30:14;;;;;;;41.88;25.13;;;6.80;97.10;;;;;;4985937;28;20050;-68
2021/04/11 03:32:47;;;;;;;47.63;27.10;;;6.80;97.10;;;;;;4986076;28;20034;-69
2021/04/11 03:35:17;;;;;;;47.72;27.27;;;6.80;97.20;;;;;;4987883;28;20030;-69
2021/04/11 03:37:44;;;;;;;47.00;27.42;;;6.80;97.20;;;;;;4986604;28;20033;-70
2021/04/11 03:40:17;;;;;;;46.33;26.27;;;6.80;97.20;;;;;;4988874;28;20045;-69
2021/04/11 03:42:46;;;;;;;46.47;28.17;;;6.80;97.20;;;;;;4986492;28;20129;-69
2021/04/11 03:45:13;;;;;;;48.53;28.17;;;6.80;97.20;;;;;;4981569;28;20081;-69
2021/04/11 03:47:44;;;;;;;49.38;27.88;;;6.80;97.20;;;;;;4989705;28;20062;-69
2021/04/11 03:50:28;;;;;;;48.05;28.40;;;6.90;97.20;;;;;;5001285;28;20027;-69
2021/04/11 03:53:12;;;;;;;50.90;26.33;;;6.80;97.20;;;;;;4988387;28;20038;-69
2021/04/11 03:55:41;;;;;;;48.45;27.23;;;6.90;97.20;;;;;;4987220;28;20489;-68
2021/04/11 03:58:12;;;;;;;46.42;27.38;;;6.90;97.30;;;;;;4985964;28;20034;-69
2021/04/11 04:01:06;;;;;;;47.00;26.90;;;6.90;97.30;;;;;;4987097;28;20038;-69
2021/04/11 04:03:34;;;;;;;44.75;27.25;;;6.90;97.30;;;;;;4982719;28;20478;-71
2021/04/11 04:06:23;;;;;;;46.38;28.55;;;6.90;97.30;;;;;;4986925;28;20466;-68
2021/04/11 04:08:50;;;;;;;47.88;28.40;;;7.00;97.30;;;;;;4981542;28;20039;-69
2021/04/11 04:11:22;;;;;;;44.00;27.55;;;7.00;97.30;;;;;;4990270;28;20357;-69
2021/04/11 04:14:12;;;;;;;49.25;27.38;;;7.00;97.30;;;;;;4985581;28;20026;-69
2021/04/11 04:16:56;;;;;;;48.08;27.38;;;7.00;97.30;;;;;;4987540;28;20379;-69
2021/04/11 04:19:30;;;;;;;47.53;27.30;;;7.00;97.30;;;;;;4986622;28;20072;-68
2021/04/11 04:22:15;;;;;;;45.95;27.45;;;7.00;97.20;;;;;;4989702;28;20113;-68
2021/04/11 04:25:13;;;;;;;46.65;27.58;;;7.00;97.20;;;;;;4983945;28;20027;-69
2021/04/11 04:28:21;;;;;;;45.53;27.25;;;7.00;97.20;;;;;;4988067;28;20052;-69
2021/04/11 04:31:30;;;;;;;47.50;28.13;;;7.00;97.20;;;;;;4975878;28;20038;-69
2021/04/11 04:33:59;;;;;;;49.83;27.83;;;7.00;97.30;;;;;;4984913;28;20045;-70
2021/04/11 04:36:46;;;;;;;53.60;30.60;;;7.00;97.20;;;;;;4989028;28;20030;-68
2021/04/11 04:39:36;;;;;;;54.58;30.38;;;7.00;97.30;;;;;;4981450;28;20037;-70
2021/04/11 04:42:14;;;;;;;54.85;30.13;;;7.00;97.30;;;;;;4984360;28;20026;-69
2021/04/11 04:44:47;;;;;;;49.42;29.33;;;7.00;97.30;;;;;;4984922;28;20023;-68
2021/04/11 04:47:26;;;;;;;52.75;30.23;;;7.00;97.30;;;;;;4987629;28;20026;-69
2021/04/11 04:50:12;;;;;;;50.03;29.65;;;7.00;97.30;;;;;;4985804;28;20554;-68
2021/04/11 04:52:43;;;;;;;56.60;30.92;;;7.10;97.30;;;;;;4981516;28;20151;-70
2021/04/11 04:55:23;;;;;;;52.03;30.77;;;7.10;97.30;;;;;;4987791;28;20030;-68
2021/04/11 04:58:01;;;;;;;58.15;31.67;;;7.00;97.40;;;;;;4982933;28;20084;-68
2021/04/11 05:00:39;;;;;;;55.35;31.75;;;7.10;97.40;;;;;;4984843;28;20406;-69
2021/04/11 05:03:13;;;;;;;56.35;31.45;;;7.10;97.40;;;;;;4985207;28;20161;-70
2021/04/11 05:05:55;;;;;;;64.10;33.40;;;7.10;97.40;;;;;;4982410;28;20030;-68
2021/04/11 05:08:27;;;;;;;57.78;33.83;;;7.10;97.40;;;;;;4983177;28;20435;-68
2021/04/11 05:11:01;;;;;;;59.75;34.67;;;7.10;97.40;;;;;;4986856;28;20045;-69
2021/04/11 05:13:33;;;;;;;64.45;34.53;;;7.10;97.40;;;;;;4986625;28;20026;-68
2021/04/11 05:16:08;;;;;;;65.47;36.47;;;7.10;97.40;;;;;;4986084;28;20061;-68
2021/04/11 05:18:38;;;;;;;65.50;35.17;;;7.10;97.40;;;;;;4986113;28;20023;-69
2021/04/11 05:21:11;;;;;;;61.55;34.60;;;7.10;97.40;;;;;;4979817;28;20470;-69
2021/04/11 05:23:52;;;;;;;68.53;35.88;;;7.10;97.40;;;;;;4979349;28;20038;-70
2021/04/11 05:26:27;;;;;;;61.38;36.40;;;7.10;97.40;;;;;;4983784;28;20084;-69
2021/04/11 05:28:56;;;;;;;64.63;36.05;;;7.20;97.50;;;;;;4984751;28;20031;-68
2021/04/11 05:31:27;;;;;;;68.00;37.95;;;7.20;97.50;;;;;;4983431;28;20040;-69
2021/04/11 05:33:54;;;;;;;71.72;37.92;;;7.20;97.40;;;;;;4981048;28;20026;-68
2021/04/11 05:36:34;;;;;;;75.10;37.50;;;7.20;97.50;;;;;;4987245;28;20134;-68
2021/04/11 05:39:25;;;;;;;77.88;38.45;;;7.30;97.50;;;;;;4983444;28;20106;-70
2021/04/11 05:42:02;;;;;;;77.40;38.38;;;7.30;97.50;;;;;;4987855;28;20026;-69
2021/04/11 05:44:41;;;;;;;69.07;37.75;;;7.30;97.50;;;;;;4984288;28;20065;-69
2021/04/11 05:47:17;;;;;;;69.88;37.05;;;7.40;97.50;;;;;;4996042;28;20076;-69
2021/04/11 05:49:55;;;;;;;73.80;41.25;;;7.40;97.50;;;;;;4985358;28;20033;-69
2021/04/11 05:52:47;;;;;;;73.35;39.22;;;7.40;97.60;;;;;;4982252;28;20597;-69
2021/04/11 05:55:16;;;;;;;70.88;38.42;;;7.50;97.60;;;;;;4977033;28;20100;-69
2021/04/11 05:57:54;;;;;;;70.47;38.67;;;7.50;97.60;;;;;;4985808;28;20038;-70
2021/04/11 06:00:35;;;;;;;75.57;39.53;;;7.50;97.60;;;;;;4983626;28;20117;-69
2021/04/11 06:03:08;;;;;;;79.03;39.33;;;7.50;97.60;;;;;;4978981;28;20033;-70
2021/04/11 06:05:41;;;;;;;73.45;38.70;;;7.60;97.60;;;;;;4978704;28;20061;-70
2021/04/11 06:08:32;;;;;;;81.85;40.13;;;7.60;97.60;;;;;;4968076;28;20022;-69
2021/04/11 06:11:04;;;;;;;71.80;38.30;;;7.70;97.60;;;;;;4967973;28;20926;-69
2021/04/11 06:13:43;;;;;;;67.03;37.55;;;7.70;97.60;;;;;;4968873;28;21733;-69
2021/04/11 06:16:15;;;;;;;67.47;36.50;;;7.70;97.60;;;;;;4969475;28;20081;-70
2021/04/11 06:18:44;;;;;;;68.47;36.33;;;7.70;97.60;;;;;;4970667;28;20056;-69
2021/04/11 06:21:39;;;;;;;64.28;35.10;;;7.70;97.60;;;;;;4968569;28;20034;-69
2021/04/11 06:24:43;;;;;;;66.80;35.22;;;7.80;97.60;;;;;;4966119;28;20439;-68
2021/04/11 06:27:30;;;;;;;64.30;36.53;;;7.70;97.70;;;;;;4968296;28;20026;-69
2021/04/11 06:30:16;;;;;;;65.07;35.63;;;7.80;97.70;;;;;;4983568;28;20130;-67
2021/04/11 06:33:03;;;;;;;66.05;34.58;;;7.90;97.70;;;;;;4984970;28;20049;-68
2021/04/11 06:35:35;;;;;;;65.60;36.65;;;7.90;97.70;;;;;;4984788;28;20491;-68
2021/04/11 06:38:02;;;;;;;66.35;35.88;;;8.00;97.70;;;;;;4979957;28;20026;-67
2021/04/11 06:40:53;;;;;;;58.50;34.38;;;8.00;97.70;;;;;;4974367;28;20281;-68
2021/04/11 06:43:45;;;;;;;64.45;33.90;;;8.00;97.70;;;;;;4981435;28;20030;-68
2021/04/11 06:46:32;;;;;;;53.17;32.10;;;8.10;97.70;;;;;;4985509;28;20173;-68
2021/04/11 06:49:13;;;;;;;59.38;33.90;;;8.10;97.60;;;;;;4983451;28;20034;-69
2021/04/11 06:52:06;;;;;;;56.15;33.67;;;8.10;97.60;;;;;;4985631;28;20037;-69
2021/04/11 06:55:07;;;;;;;53.10;30.17;;;8.10;97.60;;;;;;4984721;28;20034;-70
2021/04/11 06:57:44;;;;;;;54.88;32.75;;;8.10;97.70;;;;;;4980462;28;20037;-68
2021/04/11 07:00:18;;;;;;;51.63;32.45;;;8.10;97.70;;;;;;4980509;28;20066;-69
2021/04/11 07:03:12;;;;;;;51.97;31.98;;;8.10;97.60;;;;;;4986578;28;20034;-70
2021/04/11 07:05:56;;;;;;;52.45;29.35;;;8.20;97.60;;;;;;4976242;28;20397;-68
2021/04/11 07:09:00;;;;;;;50.20;30.50;;;8.20;97.60;;;;;;4983631;28;20029;-69
2021/04/11 07:11:44;;;;;;;53.38;30.63;;;8.20;97.60;;;;;;4986209;28;20454;-68
2021/04/11 07:15:00;;;;;;;47.38;28.20;;;8.20;97.60;;;;;;4976718;28;20037;-70
2021/04/11 07:17:43;;;;;;;47.78;29.08;;;8.30;97.60;;;;;;4958979;28;22284;-68
2021/04/11 07:20:09;;;;;;;48.80;28.98;;;8.30;97.60;;;;;;4981204;28;20037;-69
2021/04/11 07:23:10;;;;;;;45.22;27.65;;;8.40;97.60;;;;;;4983660;28;20026;-68
2021/04/11 07:26:02;;;;;;;46.08;26.75;;;8.50;97.60;;;;;;4980879;28;20534;-68
2021/04/11 07:28:51;;;;;;;44.08;26.40;;;8.50;97.50;;;;;;4980762;28;20581;-68
2021/04/11 07:31:53;;;;;;;40.20;25.23;;;8.60;97.50;;;;;;4979222;28;20035;-70
2021/04/11 07:34:55;;;;;;;36.75;23.67;;;8.80;97.50;;;;;;4977133;28;20110;-69
2021/04/11 07:37:26;;;;;;;31.67;22.65;;;8.90;97.40;;;;;;4985799;28;20038;-68
2021/04/11 07:40:06;;;;;;;37.38;23.38;;;9.00;97.10;;;;;;4983971;28;20030;-69
2021/04/11 07:43:09;;;;;;;34.60;23.52;;;9.00;97.10;;;;;;4985862;28;20045;-70
2021/04/11 07:45:52;;;;;;;34.33;23.25;;;9.10;97.00;;;;;;4985625;28;20032;-68
2021/04/11 07:48:37;;;;;;;37.00;23.23;;;9.10;97.00;;;;;;4984062;28;20089;-69
2021/04/11 07:51:27;;;;;;;36.05;22.48;;;9.10;96.90;;;;;;4985524;28;20085;-69
2021/04/11 07:54:05;;;;;;;32.10;21.30;;;9.10;96.90;;;;;;4988446;28;20037;-70
2021/04/11 07:57:07;;;;;;;35.03;22.50;;;9.10;96.90;;;;;;4983866;28;20117;-70
2021/04/11 07:59:52;;;;;;;32.22;21.70;;;9.20;96.90;;;;;;4995153;28;20113;-69
2021/04/11 08:02:27;;;;;;;30.15;21.15;;;9.20;96.80;;;;;;4986599;28;20089;-69
2021/04/11 08:05:44;;;;;;;35.90;22.35;;;9.20;96.70;;;;;;4985914;28;20146;-70
2021/04/11 08:08:28;;;;;;;30.17;20.67;;;9.40;96.80;;;;;;4984842;28;20029;-68
2021/04/11 08:11:34;;;;;;;25.30;18.33;;;9.60;96.70;;;;;;4986773;28;20018;-70
2021/04/11 08:14:05;;;;;;;25.20;18.90;;;9.60;96.30;;;;;;4979076;28;20038;-70
2021/04/11 08:17:13;;;;;;;28.50;18.75;;;9.70;96.30;;;;;;4986371;28;20061;-70
2021/04/11 08:20:01;;;;;;;22.80;15.55;;;9.70;96.10;;;;;;4974504;28;20117;-69
2021/04/11 08:23:10;;;;;;;26.42;18.15;;;9.70;95.20;;;;;;4981679;28;20433;-70
2021/04/11 08:26:08;;;;;;;24.55;16.00;;;9.80;95.60;;;;;;4985583;28;20073;-69
2021/04/11 08:28:49;;;;;;;23.27;16.45;;;9.90;95.50;;;;;;4987126;28;20686;-69
2021/04/11 08:31:17;;;;;;;25.03;17.40;;;10.00;95.40;;;;;;4981225;28;20502;-71
2021/04/11 08:34:19;;;;;;;23.70;16.48;;;10.40;95.50;;;;;;4985671;28;20237;-70
2021/04/11 08:36:51;;;;;;;22.45;16.13;;;10.50;94.40;;;;;;4970239;28;20038;-71
2021/04/11 08:39:46;;;;;;;21.10;15.63;;;10.80;94.70;;;;;;4980219;28;20034;-72
2021/04/11 08:42:31;;;;;;;18.88;13.68;;;10.90;94.20;;;;;;4984216;28;20197;-70
2021/04/11 08:45:23;;;;;;;16.58;12.20;;;10.90;93.70;;;;;;4979553;28;20028;-69
2021/04/11 08:48:18;;;;;;;15.25;12.32;;;10.70;92.70;;;;;;4986568;28;20027;-70
2021/04/11 08:50:57;;;;;;;17.05;11.50;;;10.80;93.80;;;;;;4986302;28;20506;-71
2021/04/11 08:53:40;;;;;;;15.45;10.18;;;10.70;92.60;;;;;;4982073;28;20137;-70
2021/04/11 08:56:16;;;;;;;14.30;9.73;;;10.70;92.40;;;;;;4983991;28;20568;-70
2021/04/11 08:59:16;;;;;;;15.35;8.55;;;11.00;92.20;;;;;;4978324;28;20075;-69
2021/04/11 09:01:45;;;;;;;12.35;8.38;;;11.00;90.60;;;;;;4985476;28;20034;-70
2021/04/11 09:04:35;;;;;;;9.77;7.28;;;11.10;92.10;;;;;;4979183;28;20036;-69
2021/04/11 09:07:22;;;;;;;15.40;8.90;;;10.80;90.90;;;;;;4986710;28;20018;-69
2021/04/11 09:10:08;;;;;;;10.82;7.68;;;10.80;92.30;;;;;;5002086;28;20058;-69
2021/04/11 09:12:57;;;;;;;10.27;6.60;;;10.50;91.60;;;;;;4981411;28;20511;-69
2021/04/11 09:15:37;;;;;;;7.70;5.47;;;10.30;91.70;;;;;;4986924;28;20100;-71
2021/04/11 09:18:17;;;;;;;8.35;6.93;;;10.00;91.20;;;;;;4983090;28;20057;-70
2021/04/11 09:20:46;;;;;;;12.87;10.20;;;9.80;92.20;;;;;;4987094;28;20037;-69
2021/04/11 09:23:35;;;;;;;18.90;13.77;;;9.40;92.80;;;;;;4985869;28;20315;-72
2021/04/11 09:26:17;;;;;;;16.08;12.68;;;9.10;93.30;;;;;;4983944;28;20164;-71
2021/04/11 09:29:01;;;;;;;17.08;12.77;;;9.00;93.00;;;;;;4976517;28;20170;-69
2021/04/11 09:31:32;;;;;;;18.85;14.60;;;8.80;92.90;;;;;;4980365;28;20023;-72
2021/04/11 09:34:06;;;;;;;19.27;15.65;;;8.80;93.30;;;;;;4983807;28;20027;-69
2021/04/11 09:36:57;;;;;;;18.45;15.45;;;8.90;93.80;;;;;;4984068;28;20379;-71
2021/04/11 09:39:43;;;;;;;17.30;13.23;;;8.90;93.70;;;;;;4980466;28;20026;-70
2021/04/11 09:42:23;;;;;;;18.83;14.32;;;9.00;93.50;;;;;;4983554;28;20031;-70
2021/04/11 09:45:18;;;;;;;15.40;12.68;;;9.00;93.30;;;;;;5000130;28;20075;-70
2021/04/11 09:47:58;;;;;;;15.73;9.85;;;8.80;92.30;;;;;;4978479;28;20031;-70
2021/04/11 09:50:41;;;;;;;16.10;11.35;;;8.70;92.50;;;;;;4979541;28;20030;-69
2021/04/11 09:53:45;;;;;;;12.60;10.07;;;8.70;92.30;;;;;;4985015;28;20474;-70
2021/04/11 09:56:25;;;;;;;12.98;9.50;;;8.60;92.30;;;;;;4984318;28;20037;-68
2021/04/11 09:59:00;;;;;;;16.30;11.05;;;8.40;92.20;;;;;;4985934;28;20577;-69
2021/04/11 10:02:02;;;;;;;15.10;11.00;;;8.50;92.40;;;;;;4983358;28;20035;-69
2021/04/11 10:04:43;;;;;;;21.15;16.20;;;8.50;92.70;;;;;;4979235;28;20045;-71
2021/04/11 10:07:30;;;;;;;21.55;16.33;;;8.20;92.20;;;;;;4984383;28;20030;-69
2021/04/11 10:10:33;;;;;;;20.60;15.93;;;7.70;92.60;;;;;;4983101;28;20066;-70
2021/04/11 10:13:15;;;;;;;26.70;19.17;;;7.60;92.90;;;;;;4974555;28;20407;-69
2021/04/11 10:16:01;;;;;;;23.98;17.35;;;7.70;93.00;;;;;;4981578;28;20510;-69
2021/04/11 10:18:54;;;;;;;24.70;17.55;;;7.60;92.50;;;;;;4981060;28;20479;-70
2021/04/11 10:21:58;;;;;;;29.13;21.90;;;7.50;92.70;;;;;;4973422;28;20126;-69
2021/04/11 10:24:48;;;;;;;32.15;22.60;;;7.60;93.20;;;;;;4983717;28;20026;-69
2021/04/11 10:27:29;;;;;;;19.98;15.02;;;7.60;92.60;;;;;;4984053;28;20031;-70
2021/04/11 10:29:56;;;;;;;17.88;12.90;;;7.40;92.20;;;;;;4984485;28;20030;-71
2021/04/11 10:32:45;;;;;;;13.18;10.32;;;7.50;92.70;;;;;;4983436;28;20060;-69
2021/04/11 10:35:34;;;;;;;14.30;10.30;;;7.30;92.20;;;;;;4981927;28;20019;-69
2021/04/11 10:38:03;;;;;;;10.95;8.10;;;7.20;91.90;;;;;;4976005;28;20097;-69
2021/04/11 10:40:40;;;;;;;11.77;8.43;;;7.00;92.30;;;;;;4978582;28;20065;-68
2021/04/11 10:43:43;;;;;;;11.23;7.53;;;7.10;93.10;;;;;;4973884;28;20153;-70
2021/04/11 10:46:21;;;;;;;11.40;8.15;;;6.90;92.00;;;;;;4983930;28;20035;-68
2021/04/11 10:49:13;;;;;;;10.20;7.35;;;6.90;92.30;;;;;;4981592;28;20053;-70
2021/04/11 10:51:48;;;;;;;10.95;8.05;;;6.70;92.50;;;;;;4978813;28;20030;-71
2021/04/11 10:54:45;;;;;;;9.95;7.22;;;6.60;92.60;;;;;;4981829;28;20035;-68
2021/04/11 10:57:31;;;;;;;10.88;6.93;;;6.60;92.80;;;;;;4982064;28;20584;-68
2021/04/11 11:00:30;;;;;;;11.05;7.25;;;6.40;92.90;;;;;;4985219;28;20269;-68
2021/04/11 11:03:05;;;;;;;9.70;6.75;;;6.50;92.70;;;;;;4985446;28;20129;-69
2021/04/11 11:06:09;;;;;;;10.23;7.00;;;6.40;92.80;;;;;;4982108;28;20054;-68
2021/04/11 11:08:56;;;;;;;8.98;6.25;;;6.40;93.20;;;;;;4967369;28;20116;-69
2021/04/11 11:11:40;;;;;;;8.88;6.53;;;6.30;92.30;;;;;;4990591;28;20057;-70
2021/04/11 11:14:06;;;;;;;10.82;6.78;;;6.50;92.60;;;;;;4985016;28;20085;-68
2021/04/11 11:17:16;;;;;;;11.05;7.50;;;6.40;92.20;;;;;;4985265;28;20018;-68
2021/04/11 11:20:23;;;;;;;10.30;6.93;;;6.50;92.10;;;;;;4982751;28;20552;-68
2021/04/11 11:23:08;;;;;;;11.75;6.90;;;6.40;91.60;;;;;;4984360;28;20553;-70
2021/04/11 11:25:40;;;;;;;12.07;8.25;;;6.30;92.20;;;;;;4984220;28;20030;-70
2021/04/11 11:28:24;;;;;;;9.85;7.00;;;6.30;91.20;;;;;;4985363;28;20262;-69
2021/04/11 11:30:54;;;;;;;9.85;6.75;;;6.40;91.90;;;;;;4982014;28;20063;-69
2021/04/11 11:33:24;;;;;;;12.93;8.77;;;6.40;91.00;;;;;;4985532;28;20034;-70
2021/04/11 11:35:52;;;;;;;22.33;15.57;;;6.30;90.90;;;;;;4985019;28;20154;-69
2021/04/11 11:38:48;;;;;;;24.77;17.52;;;6.20;91.10;;;;;;4984140;28;20105;-70
2021/04/11 11:41:52;;;;;;;20.17;14.18;;;6.30;90.90;;;;;;4985998;28;20133;-70
2021/04/11 11:44:24;;;;;;;19.25;14.57;;;6.20;90.70;;;;;;4985865;28;20046;-69
2021/04/11 11:46:58;;;;;;;19.90;14.70;;;6.30;90.80;;;;;;4980522;28;20049;-68
2021/04/11 11:49:46;;;;;;;20.33;13.60;;;6.30;91.20;;;;;;4986554;28;20042;-68
2021/04/11 11:52:20;;;;;;;18.35;13.60;;;6.10;90.90;;;;;;4986472;28;20037;-69
2021/04/11 11:54:58;;;;;;;17.45;13.48;;;6.10;90.90;;;;;;4983221;28;20026;-68
2021/04/11 11:57:57;;;;;;;17.20;12.52;;;6.10;91.30;;;;;;4982033;28;20105;-70
2021/04/11 12:00:36;;;;;;;17.83;12.77;;;6.10;91.20;;;;;;4980879;28;20137;-69
2021/04/11 12:03:20;;;;;;;20.30;14.20;;;6.20;91.20;;;;;;4965859;28;20370;-68
2021/04/11 12:06:26;;;;;;;21.35;14.23;;;6.20;91.10;;;;;;4984483;28;20026;-69
2021/04/11 12:09:07;;;;;;;15.30;10.65;;;6.10;90.70;;;;;;4984657;28;20022;-69
2021/04/11 12:11:43;;;;;;;17.83;12.88;;;6.00;90.30;;;;;;4983468;28;20089;-70
2021/04/11 12:14:33;;;;;;;12.73;8.82;;;5.90;91.00;;;;;;4984066;28;20097;-68
2021/04/11 12:17:30;;;;;;;11.68;7.68;;;5.80;90.50;;;;;;4984539;28;20022;-71
2021/04/11 12:20:17;;;;;;;9.95;6.90;;;5.90;91.10;;;;;;4981946;28;20087;-69
2021/04/11 12:23:08;;;;;;;9.75;6.43;;;5.80;89.80;;;;;;4983269;28;20592;-68
2021/04/11 12:25:36;;;;;;;8.07;5.82;;;5.80;89.90;;;;;;4978811;28;20038;-69
2021/04/11 12:28:25;;;;;;;9.57;6.25;;;5.80;89.90;;;;;;4981994;28;20041;-67
2021/04/11 12:30:53;;;;;;;6.45;4.15;;;5.90;90.00;;;;;;4981283;28;20030;-71
2021/04/11 12:33:30;;;;;;;5.82;3.67;;;5.80;89.20;;;;;;4979986;28;20502;-68
2021/04/11 12:36:13;;;;;;;4.80;3.25;;;5.80;89.80;;;;;;4998001;28;20466;-69
2021/04/11 12:38:45;;;;;;;4.00;2.58;;;5.60;89.60;;;;;;4982398;28;20748;-70
2021/04/11 12:41:35;;;;;;;4.47;2.78;;;5.60;90.10;;;;;;4981060;28;20565;-69
2021/04/11 12:44:19;;;;;;;4.00;2.67;;;5.70;90.10;;;;;;4982391;28;21601;-71
2021/04/11 12:47:05;;;;;;;4.05;2.60;;;5.50;90.10;;;;;;4982724;28;20031;-68
2021/04/11 12:50:01;;;;;;;4.05;2.53;;;5.60;90.40;;;;;;4980135;28;20522;-70
2021/04/11 12:52:30;;;;;;;3.92;2.45;;;5.60;89.90;;;;;;4976872;28;20057;-69
2021/04/11 12:55:20;;;;;;;4.93;2.80;;;5.40;90.00;;;;;;4981424;28;20042;-70
2021/04/11 12:58:24;;;;;;;2.63;1.67;;;5.40;90.20;;;;;;4979162;28;20061;-70
2021/04/11 13:01:02;;;;;;;3.42;1.55;;;5.20;89.50;;;;;;4980433;28;20293;-68
2021/04/11 13:03:56;;;;;;;2.97;1.50;;;5.20;89.50;;;;;;4985330;28;20499;-68
2021/04/11 13:06:38;;;;;;;1.63;1.08;;;5.20;88.70;;;;;;4971939;28;20057;-68
2021/04/11 13:09:35;;;;;;;4.00;1.42;;;5.10;87.90;;;;;;4978708;28;20042;-68
2021/04/11 13:12:07;;;;;;;4.78;1.67;;;5.30;87.60;;;;;;4977463;28;21098;-68
2021/04/11 13:14:53;;;;;;;4.43;1.58;;;5.20;88.10;;;;;;4976107;28;20444;-68
2021/04/11 13:17:57;;;;;;;1.98;1.25;;;5.30;87.70;;;;;;4978897;28;20035;-70
2021/04/11 13:20:27;;;;;;;2.35;1.20;;;5.30;87.50;;;;;;4979800;28;20022;-72
2021/04/11 13:23:08;;;;;;;2.05;1.40;;;5.30;86.90;;;;;;4981041;28;20569;-68
2021/04/11 13:25:46;;;;;;;2.92;1.27;;;5.30;86.90;;;;;;4984785;28;20031;-67
2021/04/11 13:28:33;;;;;;;2.47;1.20;;;5.30;87.20;;;;;;4978813;28;20043;-69
2021/04/11 13:31:34;;;;;;;2.42;1.35;;;5.30;87.10;;;;;;4979299;28;20097;-68
2021/04/11 13:34:39;;;;;;;2.53;1.20;;;5.20;86.90;;;;;;4980010;28;20034;-70
2021/04/11 13:37:12;;;;;;;1.35;1.10;;;5.30;86.90;;;;;;4980536;28;20286;-69
2021/04/11 13:39:41;;;;;;;3.85;1.42;;;5.30;86.90;;;;;;4979758;28;20062;-69
2021/04/11 13:42:28;;;;;;;2.13;1.35;;;5.30;86.70;;;;;;4981014;28;20643;-70
2021/04/11 13:45:32;;;;;;;2.28;1.30;;;5.30;86.30;;;;;;4933480;28;20655;-67